Time;durP1;ratioP1;P1;durP2;ratioP2;P2;SDS_P1;SDS_P2;PMS_P1;PMS_P2;Temp;Humidity;BMP_temperature;BMP_pressure;BME280_temperature;BME280_humidity;BME280_pressure;Samples;Min_cycle;Max_cycle;Signal;HPM_P1;HPM_P2
2023/12/03 00:00:41;;;;;;;30.75;14.55;;;;;;;;;;4983230;28;20050;-83
2023/12/03 00:03:07;;;;;;;28.98;14.02;;;;;;;;;;4945822;28;20077;-83
2023/12/03 00:05:34;;;;;;;35.65;13.98;;;;;;;;;;4967493;28;20508;-82
2023/12/03 00:08:00;;;;;;;32.72;14.93;;;;;;;;;;4978437;28;20113;-82
2023/12/03 00:10:25;;;;;;;30.00;13.85;;;;;;;;;;4961423;28;20119;-82
2023/12/03 00:12:51;;;;;;;32.13;13.95;;;;;;;;;;4953268;28;20035;-81
2023/12/03 00:15:16;;;;;;;35.17;14.90;;;;;;;;;;4977606;28;20101;-82
2023/12/03 00:17:41;;;;;;;32.95;13.35;;;;;;;;;;4950491;28;20046;-82
2023/12/03 00:20:07;;;;;;;34.67;14.65;;;;;;;;;;4946327;28;20031;-83
2023/12/03 00:22:33;;;;;;;31.00;14.57;;;;;;;;;;4966150;28;20449;-83
2023/12/03 00:24:58;;;;;;;38.10;14.80;;;;;;;;;;4948097;28;20090;-82
2023/12/03 00:27:24;;;;;;;32.15;14.05;;;;;;;;;;4962904;28;20113;-82
2023/12/03 00:29:49;;;;;;;33.22;14.68;;;;;;;;;;4962399;28;20039;-82
2023/12/03 00:32:14;;;;;;;32.72;14.38;;;;;;;;;;4960677;28;20031;-82
2023/12/03 00:34:40;;;;;;;31.42;14.02;;;;;;;;;;4967904;28;20065;-82
2023/12/03 00:37:06;;;;;;;30.25;13.30;;;;;;;;;;4966615;28;20038;-82
2023/12/03 00:39:31;;;;;;;33.28;15.25;;;;;;;;;;4938281;28;20455;-83
2023/12/03 00:41:56;;;;;;;34.03;14.73;;;;;;;;;;4940404;28;20489;-83
2023/12/03 00:44:22;;;;;;;30.67;14.13;;;;;;;;;;4955324;28;20038;-83
2023/12/03 00:46:47;;;;;;;37.42;15.07;;;;;;;;;;4961490;28;20041;-82
2023/12/03 00:49:13;;;;;;;31.50;14.05;;;;;;;;;;4943727;28;20094;-82
2023/12/03 00:51:38;;;;;;;31.67;13.90;;;;;;;;;;4951248;28;20455;-82
2023/12/03 00:54:03;;;;;;;30.08;13.10;;;;;;;;;;4966058;28;20035;-83
2023/12/03 00:56:29;;;;;;;32.80;14.02;;;;;;;;;;4951218;28;20162;-82
2023/12/03 00:58:54;;;;;;;27.95;12.93;;;;;;;;;;4964469;28;20034;-82
2023/12/03 01:01:20;;;;;;;26.90;12.15;;;;;;;;;;4946275;28;20113;-82
2023/12/03 01:03:45;;;;;;;29.50;12.35;;;;;;;;;;4951429;28;20046;-83
2023/12/03 01:06:11;;;;;;;26.30;12.02;;;;;;;;;;4951062;28;20027;-83
2023/12/03 01:08:36;;;;;;;25.00;11.18;;;;;;;;;;4959821;28;20181;-82
2023/12/03 01:11:05;;;;;;;21.02;10.73;;;;;;;;;;4967416;28;20031;-82
2023/12/03 01:13:31;;;;;;;23.33;10.77;;;;;;;;;;4967083;28;20046;-82
2023/12/03 01:15:56;;;;;;;24.27;10.35;;;;;;;;;;4950071;28;20404;-82
2023/12/03 01:18:21;;;;;;;24.30;10.43;;;;;;;;;;4967787;28;20042;-82
2023/12/03 01:20:47;;;;;;;21.50;10.38;;;;;;;;;;4950683;28;20035;-82
2023/12/03 01:23:12;;;;;;;19.52;9.05;;;;;;;;;;4966306;28;20500;-81
2023/12/03 01:25:37;;;;;;;19.75;9.60;;;;;;;;;;4950795;28;20045;-82
2023/12/03 01:28:03;;;;;;;21.80;10.10;;;;;;;;;;4968170;28;20505;-82
2023/12/03 01:30:28;;;;;;;19.50;8.73;;;;;;;;;;4954421;28;20045;-82
2023/12/03 01:32:54;;;;;;;23.15;10.05;;;;;;;;;;4949517;28;20039;-82
2023/12/03 01:35:19;;;;;;;19.58;9.18;;;;;;;;;;4967489;28;20043;-82
2023/12/03 01:37:44;;;;;;;20.23;8.70;;;;;;;;;;4950002;28;20056;-82
2023/12/03 01:40:10;;;;;;;20.13;9.38;;;;;;;;;;4951158;28;20039;-82
2023/12/03 01:42:35;;;;;;;18.75;8.77;;;;;;;;;;4959675;28;20457;-82
2023/12/03 01:45:01;;;;;;;19.80;8.50;;;;;;;;;;4957589;28;20174;-82
2023/12/03 01:47:27;;;;;;;20.52;9.13;;;;;;;;;;4960476;28;20512;-83
2023/12/03 01:49:53;;;;;;;16.80;8.57;;;;;;;;;;4950831;28;20925;-83
2023/12/03 01:52:18;;;;;;;17.50;8.45;;;;;;;;;;4950531;28;20170;-83
2023/12/03 01:54:44;;;;;;;18.05;8.43;;;;;;;;;;4966828;28;20069;-83
2023/12/03 01:57:10;;;;;;;19.23;8.60;;;;;;;;;;4959749;28;20034;-83
2023/12/03 01:59:35;;;;;;;17.88;9.02;;;;;;;;;;4950130;28;20041;-82
2023/12/03 02:02:04;;;;;;;19.23;8.40;;;;;;;;;;4933919;28;20046;-83
2023/12/03 02:04:30;;;;;;;17.73;8.65;;;;;;;;;;4940455;28;20054;-82
2023/12/03 02:06:55;;;;;;;22.00;8.95;;;;;;;;;;4951596;28;20421;-82
2023/12/03 02:09:21;;;;;;;18.38;8.05;;;;;;;;;;4949863;28;20027;-83
2023/12/03 02:11:47;;;;;;;18.60;8.98;;;;;;;;;;4951354;28;20034;-82
2023/12/03 02:14:14;;;;;;;20.30;8.80;;;;;;;;;;4966681;28;20058;-82
2023/12/03 02:16:47;;;;;;;19.33;9.50;;;;;;;;;;4950033;28;20035;-82
2023/12/03 02:19:13;;;;;;;17.90;9.07;;;;;;;;;;4951756;28;20519;-82
2023/12/03 02:21:38;;;;;;;19.45;8.80;;;;;;;;;;4950807;28;20042;-82
2023/12/03 02:24:04;;;;;;;20.88;9.68;;;;;;;;;;4950598;28;20034;-82
2023/12/03 02:26:29;;;;;;;19.23;8.63;;;;;;;;;;4965960;28;20229;-82
2023/12/03 02:28:54;;;;;;;22.33;9.25;;;;;;;;;;4960516;28;20059;-82
2023/12/03 02:31:20;;;;;;;21.38;9.48;;;;;;;;;;4951721;28;20574;-82
2023/12/03 02:33:53;;;;;;;22.10;9.93;;;;;;;;;;4966469;28;20417;-82
2023/12/03 02:36:18;;;;;;;20.95;9.30;;;;;;;;;;4969756;28;20035;-82
2023/12/03 02:38:44;;;;;;;21.50;9.43;;;;;;;;;;4949872;28;20396;-82
2023/12/03 02:41:09;;;;;;;19.00;9.60;;;;;;;;;;4963261;28;20205;-82
2023/12/03 02:43:34;;;;;;;20.25;10.25;;;;;;;;;;4950035;28;20069;-82
2023/12/03 02:45:59;;;;;;;21.05;9.55;;;;;;;;;;4960094;28;20039;-82
2023/12/03 02:48:25;;;;;;;19.00;9.25;;;;;;;;;;4965821;28;20046;-82
2023/12/03 02:50:50;;;;;;;19.80;9.43;;;;;;;;;;4951110;28;20035;-82
2023/12/03 02:53:16;;;;;;;19.90;9.45;;;;;;;;;;4965921;28;20400;-82
2023/12/03 02:55:41;;;;;;;20.48;9.52;;;;;;;;;;4949392;28;20042;-82
2023/12/03 02:58:06;;;;;;;21.33;10.18;;;;;;;;;;4965049;28;20526;-82
2023/12/03 03:00:32;;;;;;;18.95;9.20;;;;;;;;;;4965989;28;20038;-82
2023/12/03 03:02:57;;;;;;;20.77;9.20;;;;;;;;;;4948811;28;20161;-81
2023/12/03 03:05:22;;;;;;;17.67;8.95;;;;;;;;;;4948391;28;20066;-82
2023/12/03 03:07:48;;;;;;;18.00;8.52;;;;;;;;;;4960231;28;20078;-82
2023/12/03 03:10:13;;;;;;;17.00;9.25;;;;;;;;;;4948713;28;20130;-82
2023/12/03 03:12:38;;;;;;;17.02;8.43;;;;;;;;;;4948074;28;20069;-82
2023/12/03 03:15:04;;;;;;;16.98;8.00;;;;;;;;;;4966364;28;20038;-82
2023/12/03 03:17:30;;;;;;;17.58;8.55;;;;;;;;;;4964984;28;20440;-82
2023/12/03 03:19:55;;;;;;;19.98;8.35;;;;;;;;;;4949314;28;20046;-82
2023/12/03 03:22:21;;;;;;;16.95;8.25;;;;;;;;;;4948842;28;20127;-81
2023/12/03 03:24:46;;;;;;;17.52;8.88;;;;;;;;;;4950434;28;20042;-82
2023/12/03 03:27:11;;;;;;;15.93;8.35;;;;;;;;;;4941794;28;20035;-82
2023/12/03 03:29:37;;;;;;;17.52;8.48;;;;;;;;;;4960208;28;20106;-82
2023/12/03 03:32:03;;;;;;;17.95;9.13;;;;;;;;;;4950199;28;20122;-82
2023/12/03 03:34:29;;;;;;;17.80;8.80;;;;;;;;;;4948877;28;20146;-82
2023/12/03 03:36:55;;;;;;;18.30;9.25;;;;;;;;;;4960269;28;20117;-83
2023/12/03 03:39:40;;;;;;;19.05;9.38;;;;;;;;;;4949976;28;20396;-82
2023/12/03 03:42:06;;;;;;;18.92;8.95;;;;;;;;;;4890191;29;20076;-82
2023/12/03 03:44:31;;;;;;;20.85;9.35;;;;;;;;;;4891415;29;20071;-82
2023/12/03 03:46:57;;;;;;;16.85;8.55;;;;;;;;;;4890271;29;20426;-82
2023/12/03 03:49:22;;;;;;;19.15;8.93;;;;;;;;;;4893173;29;20750;-82
2023/12/03 03:51:48;;;;;;;18.80;9.15;;;;;;;;;;4906433;29;20127;-82
2023/12/03 03:54:13;;;;;;;17.83;8.55;;;;;;;;;;4925802;29;20047;-82
2023/12/03 03:56:39;;;;;;;17.52;9.15;;;;;;;;;;4910259;29;20047;-82
2023/12/03 03:59:04;;;;;;;17.73;8.40;;;;;;;;;;4910546;29;20036;-82
2023/12/03 04:01:30;;;;;;;20.70;9.57;;;;;;;;;;4908954;29;20087;-82
2023/12/03 04:03:56;;;;;;;19.77;9.77;;;;;;;;;;4909761;29;20166;-82
2023/12/03 04:06:21;;;;;;;17.27;8.85;;;;;;;;;;4909092;29;20114;-82
2023/12/03 04:08:48;;;;;;;20.08;9.13;;;;;;;;;;4909707;29;20160;-83
2023/12/03 04:11:13;;;;;;;22.30;10.90;;;;;;;;;;4924971;29;20405;-82
2023/12/03 04:13:39;;;;;;;18.05;9.50;;;;;;;;;;4910618;29;20035;-82
2023/12/03 04:16:05;;;;;;;20.80;10.20;;;;;;;;;;4925834;29;20119;-83
2023/12/03 04:18:30;;;;;;;17.98;10.40;;;;;;;;;;4934138;28;20042;-83
2023/12/03 04:20:55;;;;;;;19.00;10.00;;;;;;;;;;4956717;28;20040;-82
2023/12/03 04:23:21;;;;;;;24.23;11.30;;;;;;;;;;4958081;28;20484;-83
2023/12/03 04:25:46;;;;;;;20.95;10.65;;;;;;;;;;4963630;28;20460;-82
2023/12/03 04:28:11;;;;;;;20.33;10.98;;;;;;;;;;4955612;28;20031;-82
2023/12/03 04:30:37;;;;;;;23.77;10.88;;;;;;;;;;4961589;28;20042;-82
2023/12/03 04:33:02;;;;;;;22.75;10.98;;;;;;;;;;4965057;28;20058;-82
2023/12/03 04:35:28;;;;;;;20.90;10.68;;;;;;;;;;4946996;28;20477;-82
2023/12/03 04:37:53;;;;;;;21.70;11.43;;;;;;;;;;4952222;28;20046;-82
2023/12/03 04:40:19;;;;;;;24.45;11.30;;;;;;;;;;4952822;28;20130;-83
2023/12/03 04:42:45;;;;;;;24.00;11.88;;;;;;;;;;4953822;28;20090;-81
2023/12/03 04:45:10;;;;;;;22.10;12.10;;;;;;;;;;4953884;28;20500;-82
2023/12/03 04:47:36;;;;;;;24.85;11.88;;;;;;;;;;4963463;28;20035;-83
2023/12/03 04:50:01;;;;;;;24.08;12.27;;;;;;;;;;4970743;28;20046;-82
2023/12/03 04:52:27;;;;;;;23.55;11.70;;;;;;;;;;4985830;28;20042;-82
2023/12/03 04:54:52;;;;;;;25.17;12.20;;;;;;;;;;4974206;28;20487;-82
2023/12/03 04:57:18;;;;;;;22.02;11.85;;;;;;;;;;4965916;28;20026;-82
2023/12/03 04:59:44;;;;;;;27.95;12.68;;;;;;;;;;4974199;28;20030;-82
2023/12/03 05:02:09;;;;;;;25.10;12.07;;;;;;;;;;4972727;28;20120;-82
2023/12/03 05:04:34;;;;;;;25.92;13.88;;;;;;;;;;4987183;28;20046;-83
2023/12/03 05:07:00;;;;;;;23.77;12.32;;;;;;;;;;4974241;28;20034;-82
2023/12/03 05:09:25;;;;;;;24.60;12.23;;;;;;;;;;4971833;28;20092;-83
2023/12/03 05:11:51;;;;;;;27.15;13.32;;;;;;;;;;4989990;28;20030;-82
2023/12/03 05:14:16;;;;;;;24.40;12.70;;;;;;;;;;4983622;28;20614;-82
2023/12/03 05:16:41;;;;;;;24.42;12.35;;;;;;;;;;4973652;28;20395;-83
2023/12/03 05:19:07;;;;;;;27.23;13.27;;;;;;;;;;4974144;28;20428;-82
2023/12/03 05:21:32;;;;;;;24.77;12.50;;;;;;;;;;4973440;28;20786;-82
2023/12/03 05:23:58;;;;;;;24.27;12.38;;;;;;;;;;4977155;28;20487;-82
2023/12/03 05:26:24;;;;;;;23.00;11.60;;;;;;;;;;4978166;28;20491;-82
2023/12/03 05:28:49;;;;;;;27.75;12.68;;;;;;;;;;4973586;28;20037;-82
2023/12/03 05:31:15;;;;;;;24.90;11.45;;;;;;;;;;4988620;28;20113;-82
2023/12/03 05:33:41;;;;;;;24.73;12.48;;;;;;;;;;4984323;28;20088;-81
2023/12/03 05:36:07;;;;;;;23.75;11.73;;;;;;;;;;4988860;28;20038;-82
2023/12/03 05:38:32;;;;;;;27.00;13.02;;;;;;;;;;4975235;28;20061;-82
2023/12/03 05:40:57;;;;;;;22.38;11.73;;;;;;;;;;4972404;28;20042;-82
2023/12/03 05:43:23;;;;;;;22.83;11.70;;;;;;;;;;4974292;28;20046;-82
2023/12/03 05:45:48;;;;;;;23.20;12.20;;;;;;;;;;4973182;28;20042;-82
2023/12/03 05:48:13;;;;;;;24.00;12.13;;;;;;;;;;4972948;28;20121;-83
2023/12/03 05:50:39;;;;;;;22.95;12.15;;;;;;;;;;4989234;28;20038;-82
2023/12/03 05:53:04;;;;;;;25.80;12.13;;;;;;;;;;4989730;28;20488;-83
2023/12/03 05:55:30;;;;;;;21.67;11.55;;;;;;;;;;5007454;28;20041;-82
2023/12/03 05:57:55;;;;;;;24.55;12.10;;;;;;;;;;4967078;28;20232;-82
2023/12/03 06:00:20;;;;;;;23.10;12.60;;;;;;;;;;4970246;28;20046;-82
2023/12/03 06:02:46;;;;;;;21.48;11.68;;;;;;;;;;4972262;28;20502;-83
2023/12/03 06:05:11;;;;;;;21.85;11.38;;;;;;;;;;4975971;28;20104;-83
2023/12/03 06:07:37;;;;;;;22.90;11.85;;;;;;;;;;4983800;28;20045;-82
2023/12/03 06:10:03;;;;;;;21.67;11.63;;;;;;;;;;4973101;28;20038;-82
2023/12/03 06:12:29;;;;;;;23.65;11.48;;;;;;;;;;4981825;28;20065;-82
2023/12/03 06:14:55;;;;;;;20.40;11.20;;;;;;;;;;4989054;28;20061;-82
2023/12/03 06:17:20;;;;;;;21.80;11.75;;;;;;;;;;4987409;28;20460;-82
2023/12/03 06:19:46;;;;;;;21.83;11.02;;;;;;;;;;4972907;28;20057;-82
2023/12/03 06:22:11;;;;;;;21.92;10.88;;;;;;;;;;4972649;28;20038;-83
2023/12/03 06:24:36;;;;;;;22.85;11.18;;;;;;;;;;4976376;28;20514;-83
2023/12/03 06:27:02;;;;;;;22.00;11.43;;;;;;;;;;4973763;28;20036;-83
2023/12/03 06:29:28;;;;;;;20.70;10.63;;;;;;;;;;4972422;28;20499;-83
2023/12/03 06:31:53;;;;;;;21.00;11.80;;;;;;;;;;4973242;28;20029;-83
2023/12/03 06:34:18;;;;;;;20.50;11.35;;;;;;;;;;4977259;28;20522;-83
2023/12/03 06:36:44;;;;;;;23.85;11.10;;;;;;;;;;4972981;28;20038;-83
2023/12/03 06:39:10;;;;;;;22.90;11.70;;;;;;;;;;4971922;28;20040;-83
2023/12/03 06:41:35;;;;;;;20.15;10.75;;;;;;;;;;4988362;28;20038;-83
2023/12/03 06:44:00;;;;;;;22.05;11.02;;;;;;;;;;4973809;28;20034;-82
2023/12/03 06:46:26;;;;;;;24.40;11.77;;;;;;;;;;4971356;28;20081;-83
2023/12/03 06:48:51;;;;;;;24.40;12.13;;;;;;;;;;4973209;28;20041;-82
2023/12/03 06:51:16;;;;;;;21.70;11.48;;;;;;;;;;4973911;28;20065;-83
2023/12/03 06:53:42;;;;;;;22.73;11.45;;;;;;;;;;4976417;28;20037;-83
2023/12/03 06:56:09;;;;;;;24.08;12.07;;;;;;;;;;4983406;28;20502;-83
2023/12/03 06:58:35;;;;;;;25.23;13.05;;;;;;;;;;4985009;28;20042;-82
2023/12/03 07:01:00;;;;;;;24.27;12.65;;;;;;;;;;4971067;28;20124;-83
2023/12/03 07:03:25;;;;;;;25.13;12.30;;;;;;;;;;4988408;28;20100;-83
2023/12/03 07:05:51;;;;;;;26.02;12.30;;;;;;;;;;4988053;28;20033;-82
2023/12/03 07:08:16;;;;;;;21.42;11.25;;;;;;;;;;4972280;28;20460;-83
2023/12/03 07:10:42;;;;;;;24.90;12.50;;;;;;;;;;4972963;28;20050;-82
2023/12/03 07:13:07;;;;;;;25.20;12.27;;;;;;;;;;4970392;28;20029;-83
2023/12/03 07:15:32;;;;;;;24.77;12.32;;;;;;;;;;4972903;28;20394;-83
2023/12/03 07:17:58;;;;;;;22.48;11.75;;;;;;;;;;4973502;28;20081;-82
2023/12/03 07:20:25;;;;;;;22.65;12.32;;;;;;;;;;4981459;28;20100;-84
2023/12/03 07:22:51;;;;;;;21.05;11.02;;;;;;;;;;4970174;28;20121;-84
2023/12/03 07:25:17;;;;;;;21.73;11.23;;;;;;;;;;5005443;28;20482;-84
2023/12/03 07:27:42;;;;;;;22.30;11.88;;;;;;;;;;4947117;28;20126;-83
2023/12/03 07:30:08;;;;;;;22.30;11.85;;;;;;;;;;4987394;28;20120;-84
2023/12/03 07:32:34;;;;;;;25.50;12.13;;;;;;;;;;4972397;28;20038;-80
2023/12/03 07:35:00;;;;;;;24.05;12.50;;;;;;;;;;4987221;28;20563;-81
2023/12/03 07:37:25;;;;;;;23.42;11.98;;;;;;;;;;4961849;28;20152;-81
2023/12/03 07:39:50;;;;;;;25.58;12.90;;;;;;;;;;4987361;28;20038;-81
2023/12/03 07:42:17;;;;;;;23.58;12.52;;;;;;;;;;4963422;28;20120;-81
2023/12/03 07:44:42;;;;;;;25.75;12.77;;;;;;;;;;4984454;28;20925;-81
2023/12/03 07:47:08;;;;;;;24.77;12.77;;;;;;;;;;4970153;28;20026;-82
2023/12/03 07:49:34;;;;;;;25.08;12.65;;;;;;;;;;4971706;28;20030;-81
2023/12/03 07:52:00;;;;;;;23.43;12.30;;;;;;;;;;4970300;28;20129;-84
2023/12/03 07:54:25;;;;;;;24.10;11.98;;;;;;;;;;4987340;28;24856;-84
2023/12/03 07:56:50;;;;;;;22.60;11.85;;;;;;;;;;4969243;28;20400;-83
2023/12/03 07:59:16;;;;;;;22.52;11.65;;;;;;;;;;4966993;28;20402;-84
2023/12/03 08:01:41;;;;;;;26.00;12.02;;;;;;;;;;4974312;28;20407;-83
2023/12/03 08:04:07;;;;;;;23.80;11.38;;;;;;;;;;4991531;28;20046;-83
2023/12/03 08:06:33;;;;;;;23.98;11.55;;;;;;;;;;4966967;28;20034;-84
2023/12/03 08:08:59;;;;;;;21.58;10.68;;;;;;;;;;4991263;28;20070;-83
2023/12/03 08:11:24;;;;;;;21.33;10.98;;;;;;;;;;4974282;28;20030;-83
2023/12/03 08:13:49;;;;;;;23.75;11.48;;;;;;;;;;4976992;28;20049;-80
2023/12/03 08:16:15;;;;;;;22.35;11.35;;;;;;;;;;4975604;28;20069;-79
2023/12/03 08:18:42;;;;;;;23.17;11.52;;;;;;;;;;4974933;28;20167;-80
2023/12/03 08:21:09;;;;;;;22.92;12.05;;;;;;;;;;4974986;28;20026;-82
2023/12/03 08:23:34;;;;;;;23.38;11.55;;;;;;;;;;4987441;28;20507;-84
2023/12/03 08:26:02;;;;;;;25.58;12.45;;;;;;;;;;4979615;28;20049;-84
2023/12/03 08:28:28;;;;;;;21.17;11.60;;;;;;;;;;4986446;28;20117;-83
2023/12/03 08:30:53;;;;;;;22.33;11.77;;;;;;;;;;4985193;28;20113;-84
2023/12/03 08:33:21;;;;;;;21.58;11.57;;;;;;;;;;4974155;28;20035;-84
2023/12/03 08:35:47;;;;;;;22.23;12.25;;;;;;;;;;4974028;28;20121;-84
2023/12/03 08:38:12;;;;;;;20.92;11.32;;;;;;;;;;4975446;28;20481;-84
2023/12/03 08:40:38;;;;;;;20.90;10.82;;;;;;;;;;4974146;28;20056;-85
2023/12/03 08:43:03;;;;;;;22.10;10.93;;;;;;;;;;4974724;28;20395;-84
2023/12/03 08:45:29;;;;;;;22.90;11.90;;;;;;;;;;4974244;28;20558;-84
2023/12/03 08:47:55;;;;;;;22.83;11.73;;;;;;;;;;4975376;28;20041;-84
2023/12/03 08:50:26;;;;;;;24.40;12.27;;;;;;;;;;4990753;28;20038;-84
2023/12/03 08:52:52;;;;;;;22.48;11.68;;;;;;;;;;4975948;28;21040;-84
2023/12/03 08:55:17;;;;;;;24.58;12.15;;;;;;;;;;4974998;28;20030;-84
2023/12/03 08:57:43;;;;;;;21.60;11.27;;;;;;;;;;4974084;28;20037;-83
2023/12/03 09:00:10;;;;;;;24.40;10.82;;;;;;;;;;4967021;28;20029;-84
2023/12/03 09:02:38;;;;;;;22.33;11.13;;;;;;;;;;4968069;28;20030;-84
2023/12/03 09:05:04;;;;;;;22.02;11.77;;;;;;;;;;4971404;28;20057;-84
2023/12/03 09:07:30;;;;;;;20.77;10.77;;;;;;;;;;4974584;28;20141;-84
2023/12/03 09:09:57;;;;;;;20.88;11.07;;;;;;;;;;4973484;28;20125;-84
2023/12/03 09:12:22;;;;;;;20.98;10.98;;;;;;;;;;4973281;28;20087;-84
2023/12/03 09:14:47;;;;;;;23.25;10.82;;;;;;;;;;4985864;28;20537;-84
2023/12/03 09:17:13;;;;;;;22.17;11.05;;;;;;;;;;4989764;28;20365;-84
2023/12/03 09:19:38;;;;;;;19.73;10.60;;;;;;;;;;4990898;28;20447;-84
2023/12/03 09:22:04;;;;;;;20.27;10.52;;;;;;;;;;4984302;28;20458;-84
2023/12/03 09:24:29;;;;;;;19.42;10.02;;;;;;;;;;4977339;28;20093;-84
2023/12/03 09:26:54;;;;;;;22.88;10.95;;;;;;;;;;4974789;28;20061;-83
2023/12/03 09:29:20;;;;;;;20.45;10.05;;;;;;;;;;4973745;28;20034;-85
2023/12/03 09:31:45;;;;;;;21.15;10.48;;;;;;;;;;4985641;28;20117;-84
2023/12/03 09:34:11;;;;;;;20.00;10.52;;;;;;;;;;4974114;28;20503;-84
2023/12/03 09:36:36;;;;;;;16.67;9.80;;;;;;;;;;4973550;28;20038;-84
2023/12/03 09:39:01;;;;;;;21.25;10.60;;;;;;;;;;4973356;28;20034;-84
2023/12/03 09:41:29;;;;;;;20.58;11.05;;;;;;;;;;5007041;28;20510;-85
2023/12/03 11:48:58;;;;;;;18.42;9.18;;;;;;;;;;4983740;28;21205;-82
2023/12/03 11:51:26;;;;;;;17.67;8.73;;;;;;;;;;4991488;28;20045;-82
2023/12/03 11:54:09;;;;;;;18.52;9.93;;;;;;;;;;4994470;28;20036;-80
2023/12/03 11:56:35;;;;;;;18.92;9.63;;;;;;;;;;5010178;28;20092;-80
2023/12/03 11:59:00;;;;;;;19.13;9.98;;;;;;;;;;5011447;28;20041;-80
2023/12/03 12:01:25;;;;;;;18.80;9.63;;;;;;;;;;4994860;28;20504;-81
2023/12/03 12:03:51;;;;;;;18.90;9.57;;;;;;;;;;4995363;28;20037;-82
2023/12/03 12:06:30;;;;;;;19.70;8.95;;;;;;;;;;5010205;28;20052;-81
2023/12/03 12:08:58;;;;;;;18.23;9.25;;;;;;;;;;4994695;28;20038;-81
2023/12/03 12:11:24;;;;;;;18.02;9.32;;;;;;;;;;5007824;28;20494;-81
2023/12/03 12:13:49;;;;;;;18.35;9.55;;;;;;;;;;5010746;28;20040;-80
2023/12/03 12:16:15;;;;;;;18.35;9.65;;;;;;;;;;4994359;28;20030;-79
2023/12/03 12:18:40;;;;;;;17.33;9.07;;;;;;;;;;4994245;28;20494;-78
2023/12/03 12:21:10;;;;;;;18.63;9.90;;;;;;;;;;4998597;28;20087;-79
2023/12/03 12:23:36;;;;;;;18.70;10.30;;;;;;;;;;4994383;28;20041;-78
2023/12/03 12:26:02;;;;;;;18.50;9.60;;;;;;;;;;4993915;28;20040;-78
2023/12/03 12:28:27;;;;;;;18.98;9.75;;;;;;;;;;4996085;28;20041;-79
2023/12/03 12:30:54;;;;;;;18.58;10.18;;;;;;;;;;4992654;28;20478;-80
2023/12/03 12:33:20;;;;;;;16.60;8.32;;;;;;;;;;5007758;28;20045;-79
2023/12/03 12:35:49;;;;;;;19.10;10.52;;;;;;;;;;5009303;28;20043;-80
2023/12/03 12:38:15;;;;;;;20.08;10.75;;;;;;;;;;5010572;28;20132;-80
2023/12/03 12:40:51;;;;;;;20.55;10.57;;;;;;;;;;4990764;28;20057;-79
2023/12/03 12:43:17;;;;;;;19.90;10.20;;;;;;;;;;5010091;28;20462;-79
2023/12/03 12:45:43;;;;;;;19.63;10.20;;;;;;;;;;4991529;28;20044;-79
2023/12/03 12:48:24;;;;;;;19.35;9.68;;;;;;;;;;4998593;28;20044;-81
2023/12/03 12:50:49;;;;;;;20.02;9.32;;;;;;;;;;4991548;28;20088;-81
2023/12/03 12:53:15;;;;;;;17.95;9.07;;;;;;;;;;4994103;28;20041;-80
2023/12/03 12:55:40;;;;;;;18.27;9.75;;;;;;;;;;4991230;28;20036;-79
2023/12/03 12:58:06;;;;;;;17.80;9.23;;;;;;;;;;4994667;28;20033;-80
2023/12/03 13:00:32;;;;;;;17.67;9.32;;;;;;;;;;4993111;28;20037;-80
2023/12/03 13:02:58;;;;;;;19.15;9.68;;;;;;;;;;4993875;28;20577;-79
2023/12/03 13:05:25;;;;;;;18.92;9.43;;;;;;;;;;4992363;28;20041;-79
2023/12/03 13:07:52;;;;;;;19.95;9.20;;;;;;;;;;4992324;28;20112;-79
2023/12/03 13:10:17;;;;;;;16.58;9.18;;;;;;;;;;4992830;28;20443;-79
2023/12/03 13:12:45;;;;;;;19.05;9.68;;;;;;;;;;4991961;28;20037;-79
2023/12/03 13:15:12;;;;;;;19.27;10.30;;;;;;;;;;4991343;28;20041;-79
2023/12/03 13:17:51;;;;;;;18.38;9.52;;;;;;;;;;4991423;28;20041;-79
2023/12/03 13:20:17;;;;;;;18.23;8.95;;;;;;;;;;5007477;28;20037;-79
2023/12/03 13:22:44;;;;;;;18.25;9.43;;;;;;;;;;4990609;28;20037;-81
2023/12/03 13:25:09;;;;;;;19.48;9.98;;;;;;;;;;5008455;28;20037;-79
2023/12/03 13:27:35;;;;;;;16.58;8.55;;;;;;;;;;5006559;28;20399;-79
2023/12/03 13:30:01;;;;;;;17.35;9.18;;;;;;;;;;4992140;28;20041;-79
2023/12/03 13:32:26;;;;;;;16.60;9.10;;;;;;;;;;4989707;28;20046;-79
2023/12/03 13:34:51;;;;;;;17.05;9.05;;;;;;;;;;5008508;28;20120;-79
2023/12/03 13:37:17;;;;;;;15.73;8.63;;;;;;;;;;4990448;28;20033;-79
2023/12/03 13:39:42;;;;;;;15.20;8.60;;;;;;;;;;5008215;28;20069;-80
2023/12/03 13:42:08;;;;;;;17.48;8.88;;;;;;;;;;5006275;28;20041;-80
2023/12/03 13:44:33;;;;;;;17.75;8.68;;;;;;;;;;4991468;28;20155;-79
2023/12/03 13:46:59;;;;;;;16.40;8.55;;;;;;;;;;4991482;28;20055;-79
2023/12/03 13:49:24;;;;;;;16.88;8.80;;;;;;;;;;4991614;28;20045;-80
2023/12/03 13:51:50;;;;;;;15.30;8.38;;;;;;;;;;5007020;28;20041;-79
2023/12/03 13:54:15;;;;;;;17.00;9.00;;;;;;;;;;4988454;28;20021;-80
2023/12/03 13:56:40;;;;;;;17.90;8.80;;;;;;;;;;4989686;28;20117;-79
2023/12/03 13:59:06;;;;;;;17.27;8.63;;;;;;;;;;4991809;28;20092;-79
2023/12/03 14:01:31;;;;;;;16.67;9.10;;;;;;;;;;4990962;28;20507;-79
2023/12/03 14:03:57;;;;;;;17.25;8.48;;;;;;;;;;4991237;28;20132;-79
2023/12/03 14:06:22;;;;;;;14.75;7.78;;;;;;;;;;4990594;28;20557;-79
2023/12/03 14:08:47;;;;;;;16.50;7.85;;;;;;;;;;4991963;28;20029;-79
2023/12/03 14:11:13;;;;;;;15.23;8.13;;;;;;;;;;5006904;28;20033;-79
2023/12/03 14:13:38;;;;;;;14.75;7.93;;;;;;;;;;4994129;28;20041;-78
2023/12/03 14:16:24;;;;;;;15.65;8.15;;;;;;;;;;4991860;28;20499;-80
2023/12/03 14:18:50;;;;;;;15.60;8.68;;;;;;;;;;4944418;29;20050;-79
2023/12/03 14:21:16;;;;;;;16.30;8.40;;;;;;;;;;4927932;29;20516;-79
2023/12/03 14:23:41;;;;;;;17.65;8.52;;;;;;;;;;4913405;29;20188;-79
2023/12/03 14:26:07;;;;;;;14.45;7.70;;;;;;;;;;4929832;29;20108;-80
2023/12/03 14:28:36;;;;;;;14.93;7.38;;;;;;;;;;4929912;29;20035;-79
2023/12/03 14:31:02;;;;;;;15.57;7.85;;;;;;;;;;4928394;29;20038;-79
2023/12/03 14:33:28;;;;;;;12.98;7.15;;;;;;;;;;4928906;29;20568;-79
2023/12/03 14:35:53;;;;;;;15.93;8.05;;;;;;;;;;4928426;29;20164;-79
2023/12/03 14:38:18;;;;;;;16.40;9.27;;;;;;;;;;4944555;29;20031;-79
2023/12/03 14:40:44;;;;;;;15.25;8.27;;;;;;;;;;4942884;29;20769;-81
2023/12/03 14:43:09;;;;;;;16.00;8.20;;;;;;;;;;4929622;29;20050;-80
2023/12/03 14:45:36;;;;;;;15.05;8.18;;;;;;;;;;4928842;29;20043;-80
2023/12/03 14:48:01;;;;;;;15.70;7.88;;;;;;;;;;4928810;29;20549;-80
2023/12/03 14:50:26;;;;;;;16.05;8.75;;;;;;;;;;4930132;29;20043;-80
2023/12/03 14:52:52;;;;;;;15.43;8.02;;;;;;;;;;4912876;29;20464;-80
2023/12/03 14:55:18;;;;;;;14.88;7.95;;;;;;;;;;4963040;28;20040;-80
2023/12/03 14:57:44;;;;;;;15.25;8.55;;;;;;;;;;4990358;28;20048;-79
2023/12/03 15:00:16;;;;;;;15.88;7.72;;;;;;;;;;4990901;28;20033;-79
2023/12/03 15:02:43;;;;;;;14.02;7.68;;;;;;;;;;4990677;28;20034;-80
2023/12/03 15:05:08;;;;;;;14.32;7.57;;;;;;;;;;5003487;28;20034;-80
2023/12/03 15:07:35;;;;;;;16.00;8.23;;;;;;;;;;4991204;28;20156;-80
2023/12/03 15:10:02;;;;;;;15.27;8.17;;;;;;;;;;4990602;28;20041;-80
2023/12/03 15:12:30;;;;;;;15.50;7.93;;;;;;;;;;5007057;28;20152;-80
2023/12/03 15:14:56;;;;;;;16.88;8.63;;;;;;;;;;4991591;28;20413;-81
2023/12/03 15:17:22;;;;;;;15.10;7.90;;;;;;;;;;4990868;28;20056;-80
2023/12/03 15:19:47;;;;;;;15.55;8.45;;;;;;;;;;4988319;28;20038;-80
2023/12/03 15:22:12;;;;;;;14.90;7.72;;;;;;;;;;4990203;28;20564;-80
2023/12/03 15:24:38;;;;;;;14.80;8.32;;;;;;;;;;5007706;28;20057;-81
2023/12/03 15:27:23;;;;;;;14.05;7.35;;;;;;;;;;5007914;28;20387;-79
2023/12/03 15:29:49;;;;;;;14.35;7.50;;;;;;;;;;4923131;29;20050;-80
2023/12/03 15:32:16;;;;;;;14.43;8.63;;;;;;;;;;4921561;29;20039;-79
2023/12/03 15:34:41;;;;;;;13.77;7.45;;;;;;;;;;4911107;29;20050;-80
2023/12/03 15:37:07;;;;;;;17.70;8.80;;;;;;;;;;4911119;29;20035;-81
2023/12/03 15:39:32;;;;;;;15.90;8.35;;;;;;;;;;4928481;29;20039;-80
2023/12/03 15:41:58;;;;;;;15.77;8.60;;;;;;;;;;4926327;29;20405;-80
2023/12/03 15:44:25;;;;;;;14.77;8.45;;;;;;;;;;4911498;29;20055;-80
2023/12/03 15:46:50;;;;;;;18.90;8.90;;;;;;;;;;4922290;28;20035;-81
2023/12/03 15:49:15;;;;;;;18.70;8.52;;;;;;;;;;4910562;29;20536;-80
2023/12/03 15:51:41;;;;;;;16.13;8.55;;;;;;;;;;4912600;29;20151;-81
2023/12/03 15:54:06;;;;;;;18.55;8.82;;;;;;;;;;4913149;29;20094;-79
2023/12/03 15:56:31;;;;;;;15.68;8.05;;;;;;;;;;4928401;29;20413;-79
2023/12/03 15:58:57;;;;;;;17.33;7.93;;;;;;;;;;4922313;29;22283;-81
2023/12/03 16:01:22;;;;;;;14.65;8.45;;;;;;;;;;4927335;29;20413;-80
2023/12/03 16:03:48;;;;;;;17.25;8.93;;;;;;;;;;4922601;29;20509;-80
2023/12/03 16:06:13;;;;;;;17.63;8.35;;;;;;;;;;4956056;28;20034;-79
2023/12/03 16:08:38;;;;;;;15.65;8.10;;;;;;;;;;4991190;28;20037;-80
2023/12/03 16:11:04;;;;;;;16.75;8.27;;;;;;;;;;4990683;28;20060;-79
2023/12/03 16:13:30;;;;;;;15.55;7.95;;;;;;;;;;4991110;28;20037;-79
2023/12/03 16:15:55;;;;;;;17.73;8.48;;;;;;;;;;4990102;28;20033;-79
2023/12/03 16:18:21;;;;;;;16.38;8.93;;;;;;;;;;4990654;28;20041;-79
2023/12/03 16:20:47;;;;;;;15.63;8.05;;;;;;;;;;4991089;28;20034;-79